Fecha, hora, temperatura, viento dirección y velocidad, humedad y presión.

  • 12-12-2018 17:00:00 | 11.20°C | Oeste |11.00 km/h | 67.00% | 974.70 hPa
  • 12-12-2018 16:00:00 | 12.00°C | Oeste |6.00 km/h | 63.00% | 974.80 hPa
  • 12-12-2018 15:00:00 | 12.30°C | Oeste |8.00 km/h | 61.00% | 975.10 hPa
  • 12-12-2018 13:00:00 | 0.00°C | 0 |0.00 km/h | 0.00% | 0.00 hPa
  • 12-12-2018 12:00:00 | 9.30°C | Oeste |10.00 km/h | 63.00% | 978.20 hPa
  • 12-12-2018 12:00:00 | 9.30°C | Oeste |10.00 km/h | 63.00% | 978.20 hPa
  • 12-12-2018 11:00:00 | 7.70°C | Oeste |9.00 km/h | 68.00% | 979.20 hPa
  • 12-12-2018 10:00:00 | 6.00°C | Oeste |8.00 km/h | 73.00% | 979.60 hPa
  • 12-12-2018 09:00:00 | 4.00°C | Oeste |8.00 km/h | 82.00% | 979.40 hPa
  • 12-12-2018 08:00:00 | 5.20°C | Oeste |4.00 km/h | 78.00% | 979.10 hPa
  • 12-12-2018 06:00:00 | 3.90°C | Oeste |9.00 km/h | 85.00% | 978.80 hPa
  • 12-12-2018 05:00:00 | 4.00°C | Oeste |9.00 km/h | 83.00% | 979.40 hPa
  • 12-12-2018 04:00:00 | 4.50°C | Oeste |5.00 km/h | 85.00% | 979.70 hPa
  • 12-12-2018 03:00:00 | 5.70°C | Sudoeste |9.00 km/h | 78.00% | 979.40 hPa
  • 12-12-2018 02:00:00 | 5.40°C | Este |3.00 km/h | 79.00% | 979.10 hPa
  • 12-12-2018 01:00:00 | 6.50°C | Oeste |7.00 km/h | 75.00% | 979.40 hPa
  • 12-12-2018 00:00:00 | 7.00°C | Sudoeste |3.00 km/h | 69.00% | 978.90 hPa
  • 11-12-2018 23:00:00 | 10.00°C | Oeste |12.00 km/h | 55.00% | 978.70 hPa
  • 11-12-2018 22:00:00 | 7.30°C | Sudoeste |11.00 km/h | 68.00% | 978.30 hPa
  • 11-12-2018 21:00:00 | 5.10°C | Oeste |9.00 km/h | 89.00% | 978.30 hPa
  • 11-12-2018 20:00:00 | 5.40°C | Oeste |4.00 km/h | 86.00% | 978.30 hPa
  • 11-12-2018 19:00:00 | 5.90°C | Oeste |4.00 km/h | 85.00% | 978.00 hPa
  • 11-12-2018 18:00:00 | 7.40°C | Este |6.00 km/h | 72.00% | 977.90 hPa
  • 11-12-2018 17:00:00 | 8.90°C | Nordeste |8.00 km/h | 69.00% | 977.80 hPa
    • diseño web asturias Información sobre el estado de las mareas, altura de la marejada, temperatura del agua y otros datos de Gijón en Asturias.

      Surf Gijón